sensor_id;sensor_type;location;lat;lon;timestamp;temperature;humidity
73360;DHT22;63092;43.582;19.528;2023-11-21T00:00:20;6.00;99.90
73360;DHT22;63092;43.582;19.528;2023-11-21T00:02:46;5.90;99.90
73360;DHT22;63092;43.582;19.528;2023-11-21T00:05:13;5.90;99.90
73360;DHT22;63092;43.582;19.528;2023-11-21T00:07:42;5.90;99.90
73360;DHT22;63092;43.582;19.528;2023-11-21T00:10:09;6.00;99.90
73360;DHT22;63092;43.582;19.528;2023-11-21T00:12:36;6.00;99.90
73360;DHT22;63092;43.582;19.528;2023-11-21T00:15:02;6.10;99.90
73360;DHT22;63092;43.582;19.528;2023-11-21T00:17:28;6.10;99.90
73360;DHT22;63092;43.582;19.528;2023-11-21T00:19:54;6.10;99.90
73360;DHT22;63092;43.582;19.528;2023-11-21T00:22:20;6.10;99.90
73360;DHT22;63092;43.582;19.528;2023-11-21T00:24:46;6.20;99.90
73360;DHT22;63092;43.582;19.528;2023-11-21T00:27:13;6.10;99.90
73360;DHT22;63092;43.582;19.528;2023-11-21T00:29:40;6.20;99.90
73360;DHT22;63092;43.582;19.528;2023-11-21T00:32:06;6.20;99.90
73360;DHT22;63092;43.582;19.528;2023-11-21T00:34:32;6.20;99.90
73360;DHT22;63092;43.582;19.528;2023-11-21T00:36:58;6.20;99.90
73360;DHT22;63092;43.582;19.528;2023-11-21T00:39:24;6.30;99.90
73360;DHT22;63092;43.582;19.528;2023-11-21T00:41:50;6.20;99.90
73360;DHT22;63092;43.582;19.528;2023-11-21T00:44:16;6.20;99.90
73360;DHT22;63092;43.582;19.528;2023-11-21T00:46:42;6.10;99.90
73360;DHT22;63092;43.582;19.528;2023-11-21T00:49:08;6.00;99.90
73360;DHT22;63092;43.582;19.528;2023-11-21T00:51:34;6.00;99.90
73360;DHT22;63092;43.582;19.528;2023-11-21T00:54:00;6.00;99.90
73360;DHT22;63092;43.582;19.528;2023-11-21T00:56:26;6.00;99.90
73360;DHT22;63092;43.582;19.528;2023-11-21T00:58:53;5.80;99.90
73360;DHT22;63092;43.582;19.528;2023-11-21T01:01:19;5.80;99.90
73360;DHT22;63092;43.582;19.528;2023-11-21T01:03:46;5.80;99.90
73360;DHT22;63092;43.582;19.528;2023-11-21T01:06:12;5.80;99.90
73360;DHT22;63092;43.582;19.528;2023-11-21T01:08:37;5.80;99.90
73360;DHT22;63092;43.582;19.528;2023-11-21T01:11:03;5.70;99.90
73360;DHT22;63092;43.582;19.528;2023-11-21T01:13:30;5.70;99.90
73360;DHT22;63092;43.582;19.528;2023-11-21T01:15:56;5.70;99.90
73360;DHT22;63092;43.582;19.528;2023-11-21T01:20:51;5.70;99.90
73360;DHT22;63092;43.582;19.528;2023-11-21T01:23:18;5.60;99.90
73360;DHT22;63092;43.582;19.528;2023-11-21T01:25:44;5.70;99.90
73360;DHT22;63092;43.582;19.528;2023-11-21T01:28:09;5.60;99.90
73360;DHT22;63092;43.582;19.528;2023-11-21T01:30:35;5.60;99.90
73360;DHT22;63092;43.582;19.528;2023-11-21T01:33:01;5.60;99.90
73360;DHT22;63092;43.582;19.528;2023-11-21T01:35:26;5.60;99.90
73360;DHT22;63092;43.582;19.528;2023-11-21T01:37:52;5.60;99.90
73360;DHT22;63092;43.582;19.528;2023-11-21T01:40:19;5.60;99.90
73360;DHT22;63092;43.582;19.528;2023-11-21T01:42:44;5.60;99.90
73360;DHT22;63092;43.582;19.528;2023-11-21T01:45:12;5.60;99.90
73360;DHT22;63092;43.582;19.528;2023-11-21T01:47:38;5.60;99.90
73360;DHT22;63092;43.582;19.528;2023-11-21T01:50:07;5.60;99.90
73360;DHT22;63092;43.582;19.528;2023-11-21T01:52:34;5.50;99.90
73360;DHT22;63092;43.582;19.528;2023-11-21T01:55:01;5.60;99.90
73360;DHT22;63092;43.582;19.528;2023-11-21T01:57:28;5.60;99.90
73360;DHT22;63092;43.582;19.528;2023-11-21T01:59:55;5.70;99.90
73360;DHT22;63092;43.582;19.528;2023-11-21T02:02:21;5.70;99.90
73360;DHT22;63092;43.582;19.528;2023-11-21T02:04:47;5.60;99.90
73360;DHT22;63092;43.582;19.528;2023-11-21T02:07:13;5.70;99.90
73360;DHT22;63092;43.582;19.528;2023-11-21T02:09:38;5.70;99.90
73360;DHT22;63092;43.582;19.528;2023-11-21T02:12:08;5.60;99.90
73360;DHT22;63092;43.582;19.528;2023-11-21T02:14:36;5.60;99.90
73360;DHT22;63092;43.582;19.528;2023-11-21T02:17:02;5.60;99.90
73360;DHT22;63092;43.582;19.528;2023-11-21T02:19:29;5.60;99.90
73360;DHT22;63092;43.582;19.528;2023-11-21T02:21:57;5.50;99.90
73360;DHT22;63092;43.582;19.528;2023-11-21T02:24:29;5.40;99.90
73360;DHT22;63092;43.582;19.528;2023-11-21T02:26:54;5.40;99.90
73360;DHT22;63092;43.582;19.528;2023-11-21T02:29:21;5.50;99.90
73360;DHT22;63092;43.582;19.528;2023-11-21T02:31:54;5.50;99.90
73360;DHT22;63092;43.582;19.528;2023-11-21T02:34:21;5.50;99.90
73360;DHT22;63092;43.582;19.528;2023-11-21T02:36:48;5.50;99.90
73360;DHT22;63092;43.582;19.528;2023-11-21T02:39:17;5.40;99.90
73360;DHT22;63092;43.582;19.528;2023-11-21T02:41:43;5.40;99.90
73360;DHT22;63092;43.582;19.528;2023-11-21T02:44:09;5.40;99.90
73360;DHT22;63092;43.582;19.528;2023-11-21T02:46:36;5.40;99.90
73360;DHT22;63092;43.582;19.528;2023-11-21T02:49:03;5.40;99.90
73360;DHT22;63092;43.582;19.528;2023-11-21T02:51:29;5.30;99.90
73360;DHT22;63092;43.582;19.528;2023-11-21T02:53:55;5.40;99.90
73360;DHT22;63092;43.582;19.528;2023-11-21T02:56:26;5.40;99.90
73360;DHT22;63092;43.582;19.528;2023-11-21T02:58:52;5.40;99.90
73360;DHT22;63092;43.582;19.528;2023-11-21T03:01:18;5.40;99.90
73360;DHT22;63092;43.582;19.528;2023-11-21T03:03:44;5.30;99.90
73360;DHT22;63092;43.582;19.528;2023-11-21T03:06:10;5.30;99.90
73360;DHT22;63092;43.582;19.528;2023-11-21T03:08:35;5.30;99.90
73360;DHT22;63092;43.582;19.528;2023-11-21T03:11:02;5.30;99.90
73360;DHT22;63092;43.582;19.528;2023-11-21T03:13:30;5.30;99.90
73360;DHT22;63092;43.582;19.528;2023-11-21T03:15:56;5.30;99.90
73360;DHT22;63092;43.582;19.528;2023-11-21T03:18:21;5.30;99.90
73360;DHT22;63092;43.582;19.528;2023-11-21T03:20:48;5.40;99.90
73360;DHT22;63092;43.582;19.528;2023-11-21T03:23:14;5.40;99.90
73360;DHT22;63092;43.582;19.528;2023-11-21T03:25:40;5.40;99.90
73360;DHT22;63092;43.582;19.528;2023-11-21T03:28:06;5.40;99.90
73360;DHT22;63092;43.582;19.528;2023-11-21T03:30:34;5.30;99.90
73360;DHT22;63092;43.582;19.528;2023-11-21T03:32:59;5.20;99.90
73360;DHT22;63092;43.582;19.528;2023-11-21T03:35:25;5.20;99.90
73360;DHT22;63092;43.582;19.528;2023-11-21T03:37:52;5.20;99.90
73360;DHT22;63092;43.582;19.528;2023-11-21T03:40:18;5.20;99.90
73360;DHT22;63092;43.582;19.528;2023-11-21T03:42:43;5.30;99.90
73360;DHT22;63092;43.582;19.528;2023-11-21T03:45:09;5.40;99.90
73360;DHT22;63092;43.582;19.528;2023-11-21T03:47:37;5.40;99.90
73360;DHT22;63092;43.582;19.528;2023-11-21T03:50:03;5.50;99.90
73360;DHT22;63092;43.582;19.528;2023-11-21T03:52:29;5.50;99.90
73360;DHT22;63092;43.582;19.528;2023-11-21T03:54:55;5.60;99.90
73360;DHT22;63092;43.582;19.528;2023-11-21T03:57:21;5.50;99.90
73360;DHT22;63092;43.582;19.528;2023-11-21T03:59:47;5.60;99.90
73360;DHT22;63092;43.582;19.528;2023-11-21T04:02:12;5.60;99.90
73360;DHT22;63092;43.582;19.528;2023-11-21T04:04:38;5.60;99.90
73360;DHT22;63092;43.582;19.528;2023-11-21T04:07:04;5.60;99.90
73360;DHT22;63092;43.582;19.528;2023-11-21T04:09:30;5.40;99.90
73360;DHT22;63092;43.582;19.528;2023-11-21T04:11:56;5.40;99.90
73360;DHT22;63092;43.582;19.528;2023-11-21T04:14:22;5.40;99.90
73360;DHT22;63092;43.582;19.528;2023-11-21T04:16:48;5.40;99.90
73360;DHT22;63092;43.582;19.528;2023-11-21T04:19:14;5.40;99.90
73360;DHT22;63092;43.582;19.528;2023-11-21T04:21:41;5.40;99.90
73360;DHT22;63092;43.582;19.528;2023-11-21T04:24:07;5.50;99.90
73360;DHT22;63092;43.582;19.528;2023-11-21T04:26:33;5.50;99.90
73360;DHT22;63092;43.582;19.528;2023-11-21T04:28:59;5.60;99.90
73360;DHT22;63092;43.582;19.528;2023-11-21T04:31:24;5.60;99.90
73360;DHT22;63092;43.582;19.528;2023-11-21T04:33:50;5.60;99.90
73360;DHT22;63092;43.582;19.528;2023-11-21T04:36:16;5.60;99.90
73360;DHT22;63092;43.582;19.528;2023-11-21T04:38:42;5.60;99.90
73360;DHT22;63092;43.582;19.528;2023-11-21T04:41:08;5.70;99.90
73360;DHT22;63092;43.582;19.528;2023-11-21T04:43:34;5.60;99.90
73360;DHT22;63092;43.582;19.528;2023-11-21T04:45:59;5.70;99.90
73360;DHT22;63092;43.582;19.528;2023-11-21T04:48:27;5.60;99.90
73360;DHT22;63092;43.582;19.528;2023-11-21T04:50:53;5.50;99.90
73360;DHT22;63092;43.582;19.528;2023-11-21T04:53:18;5.50;99.90
73360;DHT22;63092;43.582;19.528;2023-11-21T04:55:45;5.60;99.90
73360;DHT22;63092;43.582;19.528;2023-11-21T04:58:11;5.50;99.90
73360;DHT22;63092;43.582;19.528;2023-11-21T05:00:37;5.50;99.90
73360;DHT22;63092;43.582;19.528;2023-11-21T05:03:04;5.60;99.90
73360;DHT22;63092;43.582;19.528;2023-11-21T05:05:30;5.60;99.90
73360;DHT22;63092;43.582;19.528;2023-11-21T05:07:56;5.40;99.90
73360;DHT22;63092;43.582;19.528;2023-11-21T05:10:22;5.50;99.90
73360;DHT22;63092;43.582;19.528;2023-11-21T05:12:48;5.60;99.90
73360;DHT22;63092;43.582;19.528;2023-11-21T05:15:16;5.60;99.90
73360;DHT22;63092;43.582;19.528;2023-11-21T05:17:44;5.60;99.90
73360;DHT22;63092;43.582;19.528;2023-11-21T05:20:12;5.60;99.90
73360;DHT22;63092;43.582;19.528;2023-11-21T05:22:39;5.70;99.90
73360;DHT22;63092;43.582;19.528;2023-11-21T05:25:06;5.80;99.90
73360;DHT22;63092;43.582;19.528;2023-11-21T05:27:35;5.80;99.90
73360;DHT22;63092;43.582;19.528;2023-11-21T05:30:02;5.80;99.90
73360;DHT22;63092;43.582;19.528;2023-11-21T05:32:30;5.80;99.90
73360;DHT22;63092;43.582;19.528;2023-11-21T05:34:56;5.90;99.90
73360;DHT22;63092;43.582;19.528;2023-11-21T05:37:22;5.90;99.90
73360;DHT22;63092;43.582;19.528;2023-11-21T05:39:49;5.90;99.90
73360;DHT22;63092;43.582;19.528;2023-11-21T05:42:15;5.90;99.90
73360;DHT22;63092;43.582;19.528;2023-11-21T05:44:42;5.90;99.90
73360;DHT22;63092;43.582;19.528;2023-11-21T05:47:11;6.00;99.90
73360;DHT22;63092;43.582;19.528;2023-11-21T05:49:39;6.00;99.90
73360;DHT22;63092;43.582;19.528;2023-11-21T05:52:05;5.90;99.90
73360;DHT22;63092;43.582;19.528;2023-11-21T05:54:31;5.90;99.90
73360;DHT22;63092;43.582;19.528;2023-11-21T05:56:57;5.90;99.90
73360;DHT22;63092;43.582;19.528;2023-11-21T05:59:23;6.00;99.90
73360;DHT22;63092;43.582;19.528;2023-11-21T06:01:48;6.00;99.90
73360;DHT22;63092;43.582;19.528;2023-11-21T06:04:14;6.00;99.90
73360;DHT22;63092;43.582;19.528;2023-11-21T06:06:40;6.00;99.90
73360;DHT22;63092;43.582;19.528;2023-11-21T06:09:06;6.00;99.90
73360;DHT22;63092;43.582;19.528;2023-11-21T06:11:34;6.10;99.90
73360;DHT22;63092;43.582;19.528;2023-11-21T06:14:01;6.10;99.90
73360;DHT22;63092;43.582;19.528;2023-11-21T06:16:26;6.10;99.90
73360;DHT22;63092;43.582;19.528;2023-11-21T06:18:53;6.10;99.90
73360;DHT22;63092;43.582;19.528;2023-11-21T06:21:19;6.10;99.90
73360;DHT22;63092;43.582;19.528;2023-11-21T06:23:44;6.10;99.90
73360;DHT22;63092;43.582;19.528;2023-11-21T06:26:10;6.10;99.90
73360;DHT22;63092;43.582;19.528;2023-11-21T06:28:36;6.10;99.90
73360;DHT22;63092;43.582;19.528;2023-11-21T06:31:02;6.20;99.90
73360;DHT22;63092;43.582;19.528;2023-11-21T06:33:31;6.20;99.90
73360;DHT22;63092;43.582;19.528;2023-11-21T06:35:57;6.30;99.90
73360;DHT22;63092;43.582;19.528;2023-11-21T06:38:23;6.30;99.90
73360;DHT22;63092;43.582;19.528;2023-11-21T06:40:49;6.30;99.90
73360;DHT22;63092;43.582;19.528;2023-11-21T06:43:14;6.50;99.90
73360;DHT22;63092;43.582;19.528;2023-11-21T06:45:40;6.50;99.90
73360;DHT22;63092;43.582;19.528;2023-11-21T06:48:06;6.50;99.90
73360;DHT22;63092;43.582;19.528;2023-11-21T06:50:32;6.40;99.90
73360;DHT22;63092;43.582;19.528;2023-11-21T06:52:58;6.40;99.90
73360;DHT22;63092;43.582;19.528;2023-11-21T06:55:23;6.40;99.90
73360;DHT22;63092;43.582;19.528;2023-11-21T06:57:49;6.50;99.90
73360;DHT22;63092;43.582;19.528;2023-11-21T07:00:17;6.50;99.90
73360;DHT22;63092;43.582;19.528;2023-11-21T07:02:45;6.60;99.90
73360;DHT22;63092;43.582;19.528;2023-11-21T07:05:11;6.60;99.90
73360;DHT22;63092;43.582;19.528;2023-11-21T07:07:36;6.50;99.90
73360;DHT22;63092;43.582;19.528;2023-11-21T07:10:03;6.50;99.90
73360;DHT22;63092;43.582;19.528;2023-11-21T07:12:30;6.50;99.90
73360;DHT22;63092;43.582;19.528;2023-11-21T07:14:58;6.50;99.90
73360;DHT22;63092;43.582;19.528;2023-11-21T07:17:24;6.60;99.90
73360;DHT22;63092;43.582;19.528;2023-11-21T07:19:50;6.60;99.90
73360;DHT22;63092;43.582;19.528;2023-11-21T07:22:16;6.60;99.90
73360;DHT22;63092;43.582;19.528;2023-11-21T07:24:49;6.60;99.90
73360;DHT22;63092;43.582;19.528;2023-11-21T07:27:16;6.60;99.90
73360;DHT22;63092;43.582;19.528;2023-11-21T07:29:42;6.60;99.90
73360;DHT22;63092;43.582;19.528;2023-11-21T07:32:08;6.60;99.90
73360;DHT22;63092;43.582;19.528;2023-11-21T07:34:35;6.50;99.90
73360;DHT22;63092;43.582;19.528;2023-11-21T07:37:01;6.60;99.90
73360;DHT22;63092;43.582;19.528;2023-11-21T07:39:28;6.60;99.90
73360;DHT22;63092;43.582;19.528;2023-11-21T07:41:54;6.60;99.90
73360;DHT22;63092;43.582;19.528;2023-11-21T07:44:20;6.60;99.90
73360;DHT22;63092;43.582;19.528;2023-11-21T07:46:46;6.80;99.90
73360;DHT22;63092;43.582;19.528;2023-11-21T07:49:12;6.80;99.90
73360;DHT22;63092;43.582;19.528;2023-11-21T07:51:42;6.80;99.90
73360;DHT22;63092;43.582;19.528;2023-11-21T07:54:07;6.80;99.90
73360;DHT22;63092;43.582;19.528;2023-11-21T07:56:33;6.90;99.90
73360;DHT22;63092;43.582;19.528;2023-11-21T07:58:59;6.90;99.90
73360;DHT22;63092;43.582;19.528;2023-11-21T08:01:24;6.90;99.90
73360;DHT22;63092;43.582;19.528;2023-11-21T08:03:50;6.90;99.90
73360;DHT22;63092;43.582;19.528;2023-11-21T08:06:18;7.00;99.90
73360;DHT22;63092;43.582;19.528;2023-11-21T08:08:43;7.10;99.90
73360;DHT22;63092;43.582;19.528;2023-11-21T08:11:09;7.10;99.90
73360;DHT22;63092;43.582;19.528;2023-11-21T08:13:36;7.20;99.90
73360;DHT22;63092;43.582;19.528;2023-11-21T08:16:02;7.20;99.90
73360;DHT22;63092;43.582;19.528;2023-11-21T08:18:30;7.30;99.90
73360;DHT22;63092;43.582;19.528;2023-11-21T08:20:55;7.30;99.90
73360;DHT22;63092;43.582;19.528;2023-11-21T08:23:22;7.40;99.90
73360;DHT22;63092;43.582;19.528;2023-11-21T08:25:54;7.50;99.90
73360;DHT22;63092;43.582;19.528;2023-11-21T08:28:20;7.50;99.90
73360;DHT22;63092;43.582;19.528;2023-11-21T08:30:47;7.50;99.90
73360;DHT22;63092;43.582;19.528;2023-11-21T08:33:13;7.60;99.90
73360;DHT22;63092;43.582;19.528;2023-11-21T08:35:39;7.60;99.90
73360;DHT22;63092;43.582;19.528;2023-11-21T08:38:05;7.50;99.90
73360;DHT22;63092;43.582;19.528;2023-11-21T08:40:31;7.60;99.90
73360;DHT22;63092;43.582;19.528;2023-11-21T08:42:57;7.50;99.90
73360;DHT22;63092;43.582;19.528;2023-11-21T08:45:25;7.60;99.90
73360;DHT22;63092;43.582;19.528;2023-11-21T08:47:51;7.60;99.90
73360;DHT22;63092;43.582;19.528;2023-11-21T08:50:17;7.60;99.90
73360;DHT22;63092;43.582;19.528;2023-11-21T08:52:44;7.70;99.90
73360;DHT22;63092;43.582;19.528;2023-11-21T08:55:11;7.70;99.90
73360;DHT22;63092;43.582;19.528;2023-11-21T08:57:43;7.80;99.90
73360;DHT22;63092;43.582;19.528;2023-11-21T09:00:09;7.70;99.90
73360;DHT22;63092;43.582;19.528;2023-11-21T09:02:41;7.70;99.90
73360;DHT22;63092;43.582;19.528;2023-11-21T09:05:11;7.70;99.90
73360;DHT22;63092;43.582;19.528;2023-11-21T09:07:38;7.70;99.90
73360;DHT22;63092;43.582;19.528;2023-11-21T09:10:05;7.80;99.90
73360;DHT22;63092;43.582;19.528;2023-11-21T09:12:35;7.70;99.90
73360;DHT22;63092;43.582;19.528;2023-11-21T09:15:05;7.60;99.90
73360;DHT22;63092;43.582;19.528;2023-11-21T09:17:32;7.50;99.90
73360;DHT22;63092;43.582;19.528;2023-11-21T09:19:59;7.50;99.90
73360;DHT22;63092;43.582;19.528;2023-11-21T09:22:25;7.50;99.90
73360;DHT22;63092;43.582;19.528;2023-11-21T09:24:53;7.50;99.90
73360;DHT22;63092;43.582;19.528;2023-11-21T09:27:19;7.60;99.90
73360;DHT22;63092;43.582;19.528;2023-11-21T09:29:47;7.60;99.90
73360;DHT22;63092;43.582;19.528;2023-11-21T09:32:13;7.50;99.90
73360;DHT22;63092;43.582;19.528;2023-11-21T09:34:41;7.50;99.90
73360;DHT22;63092;43.582;19.528;2023-11-21T09:37:07;7.50;99.90
73360;DHT22;63092;43.582;19.528;2023-11-21T09:39:34;7.40;99.90
73360;DHT22;63092;43.582;19.528;2023-11-21T09:42:12;7.30;99.90
73360;DHT22;63092;43.582;19.528;2023-11-21T09:47:27;7.40;99.90
73360;DHT22;63092;43.582;19.528;2023-11-21T09:49:54;7.40;99.90
73360;DHT22;63092;43.582;19.528;2023-11-21T09:52:26;7.30;99.90
73360;DHT22;63092;43.582;19.528;2023-11-21T09:54:54;7.30;99.90
73360;DHT22;63092;43.582;19.528;2023-11-21T09:57:23;7.30;99.90
73360;DHT22;63092;43.582;19.528;2023-11-21T09:59:53;7.40;99.90
73360;DHT22;63092;43.582;19.528;2023-11-21T10:02:26;7.40;99.90
73360;DHT22;63092;43.582;19.528;2023-11-21T10:04:53;7.40;99.90
73360;DHT22;63092;43.582;19.528;2023-11-21T10:07:20;7.50;99.90
73360;DHT22;63092;43.582;19.528;2023-11-21T10:09:47;7.60;99.90
73360;DHT22;63092;43.582;19.528;2023-11-21T10:12:16;7.60;99.90
73360;DHT22;63092;43.582;19.528;2023-11-21T10:14:42;7.50;99.90
73360;DHT22;63092;43.582;19.528;2023-11-21T10:17:12;7.60;99.90
73360;DHT22;63092;43.582;19.528;2023-11-21T10:19:42;7.60;99.90
73360;DHT22;63092;43.582;19.528;2023-11-21T10:22:08;7.60;99.90
73360;DHT22;63092;43.582;19.528;2023-11-21T10:24:35;7.60;99.90
73360;DHT22;63092;43.582;19.528;2023-11-21T10:27:00;7.70;99.90
73360;DHT22;63092;43.582;19.528;2023-11-21T10:29:29;7.60;99.90
73360;DHT22;63092;43.582;19.528;2023-11-21T10:31:55;7.60;99.90
73360;DHT22;63092;43.582;19.528;2023-11-21T10:34:24;7.60;99.90
73360;DHT22;63092;43.582;19.528;2023-11-21T10:36:50;7.70;99.90
73360;DHT22;63092;43.582;19.528;2023-11-21T10:39:19;7.80;99.90
73360;DHT22;63092;43.582;19.528;2023-11-21T10:41:47;8.00;99.90
73360;DHT22;63092;43.582;19.528;2023-11-21T10:44:17;8.00;99.90
73360;DHT22;63092;43.582;19.528;2023-11-21T10:46:49;7.90;99.90
73360;DHT22;63092;43.582;19.528;2023-11-21T10:49:24;7.90;99.90
73360;DHT22;63092;43.582;19.528;2023-11-21T10:51:53;8.00;99.90
73360;DHT22;63092;43.582;19.528;2023-11-21T10:54:21;7.90;99.90
73360;DHT22;63092;43.582;19.528;2023-11-21T10:56:49;7.80;99.90
73360;DHT22;63092;43.582;19.528;2023-11-21T10:59:17;7.90;99.90
73360;DHT22;63092;43.582;19.528;2023-11-21T11:01:45;8.00;99.90
73360;DHT22;63092;43.582;19.528;2023-11-21T11:04:14;8.10;99.90
73360;DHT22;63092;43.582;19.528;2023-11-21T11:06:53;8.10;99.90
73360;DHT22;63092;43.582;19.528;2023-11-21T11:09:20;8.10;99.90
73360;DHT22;63092;43.582;19.528;2023-11-21T11:11:46;8.10;99.90
73360;DHT22;63092;43.582;19.528;2023-11-21T11:14:13;8.10;99.90
73360;DHT22;63092;43.582;19.528;2023-11-21T11:16:40;8.10;99.90
73360;DHT22;63092;43.582;19.528;2023-11-21T11:19:09;8.10;99.90
73360;DHT22;63092;43.582;19.528;2023-11-21T11:27:10;8.20;99.90
73360;DHT22;63092;43.582;19.528;2023-11-21T11:29:46;8.20;99.90
73360;DHT22;63092;43.582;19.528;2023-11-21T11:35:07;8.30;99.90
73360;DHT22;63092;43.582;19.528;2023-11-21T11:37:36;8.40;99.90
73360;DHT22;63092;43.582;19.528;2023-11-21T11:40:08;8.40;99.90
73360;DHT22;63092;43.582;19.528;2023-11-21T11:42:36;8.40;99.90
73360;DHT22;63092;43.582;19.528;2023-11-21T11:45:02;8.50;99.90
73360;DHT22;63092;43.582;19.528;2023-11-21T11:47:42;8.50;99.90
73360;DHT22;63092;43.582;19.528;2023-11-21T11:50:13;8.50;99.90
73360;DHT22;63092;43.582;19.528;2023-11-21T11:52:42;8.50;99.90
73360;DHT22;63092;43.582;19.528;2023-11-21T11:55:11;8.50;99.90
73360;DHT22;63092;43.582;19.528;2023-11-21T11:57:38;8.50;99.90
73360;DHT22;63092;43.582;19.528;2023-11-21T12:00:47;8.50;99.90
73360;DHT22;63092;43.582;19.528;2023-11-21T12:03:07;8.60;99.90
73360;DHT22;63092;43.582;19.528;2023-11-21T12:05:35;8.60;99.90
73360;DHT22;63092;43.582;19.528;2023-11-21T12:08:05;8.70;99.90
73360;DHT22;63092;43.582;19.528;2023-11-21T12:10:33;8.70;99.90
73360;DHT22;63092;43.582;19.528;2023-11-21T12:13:05;8.60;99.90
73360;DHT22;63092;43.582;19.528;2023-11-21T12:15:36;8.60;99.90
73360;DHT22;63092;43.582;19.528;2023-11-21T12:18:02;8.40;99.90
73360;DHT22;63092;43.582;19.528;2023-11-21T12:20:29;8.40;99.90
73360;DHT22;63092;43.582;19.528;2023-11-21T12:22:59;8.40;99.90
73360;DHT22;63092;43.582;19.528;2023-11-21T12:25:27;8.60;99.90
73360;DHT22;63092;43.582;19.528;2023-11-21T12:27:55;8.60;99.90
73360;DHT22;63092;43.582;19.528;2023-11-21T12:30:23;8.70;99.90
73360;DHT22;63092;43.582;19.528;2023-11-21T12:32:52;8.80;99.90
73360;DHT22;63092;43.582;19.528;2023-11-21T12:35:19;8.70;99.90
73360;DHT22;63092;43.582;19.528;2023-11-21T12:37:47;8.60;99.90
73360;DHT22;63092;43.582;19.528;2023-11-21T12:40:16;8.60;99.90
73360;DHT22;63092;43.582;19.528;2023-11-21T12:42:47;8.60;99.90
73360;DHT22;63092;43.582;19.528;2023-11-21T12:50:12;8.50;99.90
73360;DHT22;63092;43.582;19.528;2023-11-21T12:52:45;8.50;99.90
73360;DHT22;63092;43.582;19.528;2023-11-21T12:55:15;8.50;99.90
73360;DHT22;63092;43.582;19.528;2023-11-21T12:57:42;8.50;99.90
73360;DHT22;63092;43.582;19.528;2023-11-21T13:00:09;8.50;99.90
73360;DHT22;63092;43.582;19.528;2023-11-21T13:02:41;8.50;99.90
73360;DHT22;63092;43.582;19.528;2023-11-21T13:05:09;8.50;99.90
73360;DHT22;63092;43.582;19.528;2023-11-21T13:07:44;8.60;99.90
73360;DHT22;63092;43.582;19.528;2023-11-21T13:10:16;8.70;99.90
73360;DHT22;63092;43.582;19.528;2023-11-21T13:12:45;8.70;99.90
73360;DHT22;63092;43.582;19.528;2023-11-21T13:15:16;8.80;99.90
73360;DHT22;63092;43.582;19.528;2023-11-21T13:17:45;8.80;99.90
73360;DHT22;63092;43.582;19.528;2023-11-21T13:20:12;8.80;99.90
73360;DHT22;63092;43.582;19.528;2023-11-21T13:22:53;8.90;99.90
73360;DHT22;63092;43.582;19.528;2023-11-21T13:25:23;9.00;99.90
73360;DHT22;63092;43.582;19.528;2023-11-21T13:27:49;8.90;99.90
73360;DHT22;63092;43.582;19.528;2023-11-21T13:30:16;8.80;99.90
73360;DHT22;63092;43.582;19.528;2023-11-21T13:32:45;8.70;99.90
73360;DHT22;63092;43.582;19.528;2023-11-21T13:35:12;8.60;99.90
73360;DHT22;63092;43.582;19.528;2023-11-21T13:37:52;8.50;99.90
73360;DHT22;63092;43.582;19.528;2023-11-21T13:40:22;8.50;99.90
73360;DHT22;63092;43.582;19.528;2023-11-21T13:42:53;8.40;99.90
73360;DHT22;63092;43.582;19.528;2023-11-21T13:45:20;8.40;99.90
73360;DHT22;63092;43.582;19.528;2023-11-21T13:47:51;8.30;99.90
73360;DHT22;63092;43.582;19.528;2023-11-21T13:50:18;8.30;99.90
73360;DHT22;63092;43.582;19.528;2023-11-21T13:52:51;8.30;99.90
73360;DHT22;63092;43.582;19.528;2023-11-21T13:55:19;8.30;99.90
73360;DHT22;63092;43.582;19.528;2023-11-21T13:57:45;8.30;99.90
73360;DHT22;63092;43.582;19.528;2023-11-21T14:00:15;8.40;99.90
73360;DHT22;63092;43.582;19.528;2023-11-21T14:03:00;8.50;99.90
73360;DHT22;63092;43.582;19.528;2023-11-21T14:05:27;8.60;99.90
73360;DHT22;63092;43.582;19.528;2023-11-21T14:07:57;8.60;99.90
73360;DHT22;63092;43.582;19.528;2023-11-21T14:10:31;8.60;99.90
73360;DHT22;63092;43.582;19.528;2023-11-21T14:13:12;8.70;99.90
73360;DHT22;63092;43.582;19.528;2023-11-21T14:15:39;8.70;99.90
73360;DHT22;63092;43.582;19.528;2023-11-21T14:18:09;8.70;99.90
73360;DHT22;63092;43.582;19.528;2023-11-21T14:20:40;8.80;99.90
73360;DHT22;63092;43.582;19.528;2023-11-21T14:23:07;8.80;99.90
73360;DHT22;63092;43.582;19.528;2023-11-21T14:25:37;8.80;99.90
73360;DHT22;63092;43.582;19.528;2023-11-21T14:28:06;8.90;99.90
73360;DHT22;63092;43.582;19.528;2023-11-21T14:30:35;8.80;99.90
73360;DHT22;63092;43.582;19.528;2023-11-21T14:33:02;8.80;99.90
73360;DHT22;63092;43.582;19.528;2023-11-21T14:35:28;8.90;99.90
73360;DHT22;63092;43.582;19.528;2023-11-21T14:37:58;8.80;99.90
73360;DHT22;63092;43.582;19.528;2023-11-21T14:40:24;8.90;99.90
73360;DHT22;63092;43.582;19.528;2023-11-21T14:42:51;8.90;99.90
73360;DHT22;63092;43.582;19.528;2023-11-21T14:45:21;9.00;99.90
73360;DHT22;63092;43.582;19.528;2023-11-21T14:47:50;9.00;99.90
73360;DHT22;63092;43.582;19.528;2023-11-21T14:50:35;9.00;99.90
73360;DHT22;63092;43.582;19.528;2023-11-21T14:53:03;9.00;99.90
73360;DHT22;63092;43.582;19.528;2023-11-21T14:55:32;9.00;99.90
73360;DHT22;63092;43.582;19.528;2023-11-21T14:58:08;9.00;99.90
73360;DHT22;63092;43.582;19.528;2023-11-21T15:00:38;9.00;99.90
73360;DHT22;63092;43.582;19.528;2023-11-21T15:03:12;9.00;99.90
73360;DHT22;63092;43.582;19.528;2023-11-21T15:06:06;9.00;99.90
73360;DHT22;63092;43.582;19.528;2023-11-21T15:08:53;9.00;99.90
73360;DHT22;63092;43.582;19.528;2023-11-21T15:11:22;9.00;99.90
73360;DHT22;63092;43.582;19.528;2023-11-21T15:13:57;9.10;99.90
73360;DHT22;63092;43.582;19.528;2023-11-21T15:16:23;9.10;99.90
73360;DHT22;63092;43.582;19.528;2023-11-21T15:18:49;9.10;99.90
73360;DHT22;63092;43.582;19.528;2023-11-21T15:21:15;9.00;99.90
73360;DHT22;63092;43.582;19.528;2023-11-21T15:23:40;9.10;99.90
73360;DHT22;63092;43.582;19.528;2023-11-21T15:26:07;9.10;99.90
73360;DHT22;63092;43.582;19.528;2023-11-21T15:28:35;9.10;99.90
73360;DHT22;63092;43.582;19.528;2023-11-21T15:31:01;9.10;99.90
73360;DHT22;63092;43.582;19.528;2023-11-21T15:33:28;9.10;99.90
73360;DHT22;63092;43.582;19.528;2023-11-21T15:35:54;9.00;99.90
73360;DHT22;63092;43.582;19.528;2023-11-21T15:38:20;9.00;99.90
73360;DHT22;63092;43.582;19.528;2023-11-21T15:40:47;9.00;99.90
73360;DHT22;63092;43.582;19.528;2023-11-21T15:43:13;9.00;99.90
73360;DHT22;63092;43.582;19.528;2023-11-21T15:45:39;9.00;99.90
73360;DHT22;63092;43.582;19.528;2023-11-21T15:48:05;9.10;99.90
73360;DHT22;63092;43.582;19.528;2023-11-21T15:50:31;9.10;99.90